sensor_id;sensor_type;location;lat;lon;timestamp;temperature;humidity
12309;DHT22;6217;48.150;17.142;2023-06-22T00:03:36;23.30;86.10
12309;DHT22;6217;48.150;17.142;2023-06-22T00:07:43;23.20;86.50
12309;DHT22;6217;48.150;17.142;2023-06-22T00:11:49;23.20;87.10
12309;DHT22;6217;48.150;17.142;2023-06-22T00:15:55;23.20;87.60
12309;DHT22;6217;48.150;17.142;2023-06-22T00:20:01;23.20;87.70
12309;DHT22;6217;48.150;17.142;2023-06-22T00:24:11;23.20;88.10
12309;DHT22;6217;48.150;17.142;2023-06-22T00:28:17;23.20;88.10
12309;DHT22;6217;48.150;17.142;2023-06-22T00:32:23;23.20;88.30
12309;DHT22;6217;48.150;17.142;2023-06-22T00:36:29;23.20;88.30
12309;DHT22;6217;48.150;17.142;2023-06-22T00:40:36;23.20;88.60
12309;DHT22;6217;48.150;17.142;2023-06-22T00:44:43;23.10;89.70
12309;DHT22;6217;48.150;17.142;2023-06-22T00:48:51;23.10;89.20
12309;DHT22;6217;48.150;17.142;2023-06-22T00:53:06;23.10;89.30
12309;DHT22;6217;48.150;17.142;2023-06-22T00:57:17;23.00;89.50
12309;DHT22;6217;48.150;17.142;2023-06-22T01:01:24;23.00;89.60
12309;DHT22;6217;48.150;17.142;2023-06-22T01:05:31;23.00;90.00
12309;DHT22;6217;48.150;17.142;2023-06-22T01:09:58;22.90;90.10
12309;DHT22;6217;48.150;17.142;2023-06-22T01:14:25;22.90;90.20
12309;DHT22;6217;48.150;17.142;2023-06-22T01:18:40;22.90;90.30
12309;DHT22;6217;48.150;17.142;2023-06-22T01:28:10;22.80;90.50
12309;DHT22;6217;48.150;17.142;2023-06-22T01:32:42;22.80;90.40
12309;DHT22;6217;48.150;17.142;2023-06-22T01:36:50;22.80;90.30
12309;DHT22;6217;48.150;17.142;2023-06-22T01:40:57;22.80;90.30
12309;DHT22;6217;48.150;17.142;2023-06-22T01:45:05;22.80;90.30
12309;DHT22;6217;48.150;17.142;2023-06-22T01:49:13;22.80;90.40
12309;DHT22;6217;48.150;17.142;2023-06-22T01:53:23;22.70;90.50
12309;DHT22;6217;48.150;17.142;2023-06-22T01:57:31;22.70;90.60
12309;DHT22;6217;48.150;17.142;2023-06-22T02:01:56;22.70;90.70
12309;DHT22;6217;48.150;17.142;2023-06-22T02:06:08;22.70;90.90
12309;DHT22;6217;48.150;17.142;2023-06-22T02:10:20;22.60;90.80
12309;DHT22;6217;48.150;17.142;2023-06-22T02:14:27;22.60;91.00
12309;DHT22;6217;48.150;17.142;2023-06-22T02:18:34;22.60;91.10
12309;DHT22;6217;48.150;17.142;2023-06-22T02:22:41;22.60;91.20
12309;DHT22;6217;48.150;17.142;2023-06-22T02:26:50;22.60;91.20
12309;DHT22;6217;48.150;17.142;2023-06-22T02:30:56;22.60;91.20
12309;DHT22;6217;48.150;17.142;2023-06-22T02:35:02;22.60;91.30
12309;DHT22;6217;48.150;17.142;2023-06-22T02:39:10;22.60;91.30
12309;DHT22;6217;48.150;17.142;2023-06-22T02:43:16;22.60;91.40
12309;DHT22;6217;48.150;17.142;2023-06-22T02:47:23;22.60;91.50
12309;DHT22;6217;48.150;17.142;2023-06-22T02:51:32;22.50;91.60
12309;DHT22;6217;48.150;17.142;2023-06-22T02:55:40;22.50;91.80
12309;DHT22;6217;48.150;17.142;2023-06-22T02:59:46;22.50;91.80
12309;DHT22;6217;48.150;17.142;2023-06-22T03:03:52;22.50;91.80
12309;DHT22;6217;48.150;17.142;2023-06-22T03:07:58;22.50;91.90
12309;DHT22;6217;48.150;17.142;2023-06-22T03:12:06;22.50;91.90
12309;DHT22;6217;48.150;17.142;2023-06-22T03:16:21;22.50;91.90
12309;DHT22;6217;48.150;17.142;2023-06-22T03:20:27;22.50;91.90
12309;DHT22;6217;48.150;17.142;2023-06-22T03:24:39;22.50;91.90
12309;DHT22;6217;48.150;17.142;2023-06-22T03:28:46;22.60;91.80
12309;DHT22;6217;48.150;17.142;2023-06-22T03:32:52;22.50;91.90
12309;DHT22;6217;48.150;17.142;2023-06-22T03:36:58;22.60;91.90
12309;DHT22;6217;48.150;17.142;2023-06-22T03:41:03;22.60;91.80
12309;DHT22;6217;48.150;17.142;2023-06-22T03:45:10;22.70;91.80
12309;DHT22;6217;48.150;17.142;2023-06-22T03:49:16;22.70;91.70
12309;DHT22;6217;48.150;17.142;2023-06-22T03:53:22;22.80;91.60
12309;DHT22;6217;48.150;17.142;2023-06-22T03:57:28;22.80;91.70
12309;DHT22;6217;48.150;17.142;2023-06-22T04:01:34;22.80;91.80
12309;DHT22;6217;48.150;17.142;2023-06-22T04:05:40;22.90;91.90
12309;DHT22;6217;48.150;17.142;2023-06-22T04:09:46;22.90;91.90
12309;DHT22;6217;48.150;17.142;2023-06-22T04:13:52;23.00;91.90
12309;DHT22;6217;48.150;17.142;2023-06-22T04:17:59;23.10;92.00
12309;DHT22;6217;48.150;17.142;2023-06-22T04:22:05;23.10;91.90
12309;DHT22;6217;48.150;17.142;2023-06-22T04:26:13;23.20;91.90
12309;DHT22;6217;48.150;17.142;2023-06-22T04:30:19;23.20;91.90
12309;DHT22;6217;48.150;17.142;2023-06-22T04:34:25;23.40;91.70
12309;DHT22;6217;48.150;17.142;2023-06-22T04:38:34;23.60;91.60
12309;DHT22;6217;48.150;17.142;2023-06-22T04:42:40;23.70;91.40
12309;DHT22;6217;48.150;17.142;2023-06-22T04:46:45;23.70;91.40
12309;DHT22;6217;48.150;17.142;2023-06-22T04:50:51;23.80;91.40
12309;DHT22;6217;48.150;17.142;2023-06-22T04:54:57;23.90;91.30
12309;DHT22;6217;48.150;17.142;2023-06-22T04:59:05;23.90;91.20
12309;DHT22;6217;48.150;17.142;2023-06-22T05:03:11;24.00;91.00
12309;DHT22;6217;48.150;17.142;2023-06-22T05:07:17;24.00;90.90
12309;DHT22;6217;48.150;17.142;2023-06-22T05:11:27;24.00;90.80
12309;DHT22;6217;48.150;17.142;2023-06-22T05:15:33;24.00;90.50
12309;DHT22;6217;48.150;17.142;2023-06-22T05:19:45;24.10;90.30
12309;DHT22;6217;48.150;17.142;2023-06-22T05:23:54;24.20;90.20
12309;DHT22;6217;48.150;17.142;2023-06-22T05:28:00;24.20;89.50
12309;DHT22;6217;48.150;17.142;2023-06-22T05:32:06;24.30;89.30
12309;DHT22;6217;48.150;17.142;2023-06-22T05:36:12;24.40;88.70
12309;DHT22;6217;48.150;17.142;2023-06-22T05:40:19;24.40;87.70
12309;DHT22;6217;48.150;17.142;2023-06-22T05:44:25;24.50;87.20
12309;DHT22;6217;48.150;17.142;2023-06-22T05:48:31;24.50;86.40
12309;DHT22;6217;48.150;17.142;2023-06-22T05:52:37;24.60;86.10
12309;DHT22;6217;48.150;17.142;2023-06-22T05:56:43;24.80;85.30
12309;DHT22;6217;48.150;17.142;2023-06-22T06:00:48;24.90;85.00
12309;DHT22;6217;48.150;17.142;2023-06-22T06:04:55;25.00;84.90
12309;DHT22;6217;48.150;17.142;2023-06-22T06:09:01;25.10;85.20
12309;DHT22;6217;48.150;17.142;2023-06-22T06:13:07;25.10;85.20
12309;DHT22;6217;48.150;17.142;2023-06-22T06:17:13;25.30;85.30
12309;DHT22;6217;48.150;17.142;2023-06-22T06:21:18;25.70;85.10
12309;DHT22;6217;48.150;17.142;2023-06-22T06:25:24;26.10;83.90
12309;DHT22;6217;48.150;17.142;2023-06-22T06:29:34;26.60;83.90
12309;DHT22;6217;48.150;17.142;2023-06-22T06:33:40;27.10;81.70
12309;DHT22;6217;48.150;17.142;2023-06-22T06:37:49;27.40;80.60
12309;DHT22;6217;48.150;17.142;2023-06-22T06:41:55;27.60;79.60
12309;DHT22;6217;48.150;17.142;2023-06-22T06:46:01;27.90;79.60
12309;DHT22;6217;48.150;17.142;2023-06-22T06:50:09;28.10;78.80
12309;DHT22;6217;48.150;17.142;2023-06-22T06:54:15;28.20;77.10
12309;DHT22;6217;48.150;17.142;2023-06-22T06:58:21;28.40;76.40
12309;DHT22;6217;48.150;17.142;2023-06-22T07:02:28;28.40;75.80
12309;DHT22;6217;48.150;17.142;2023-06-22T07:06:34;28.50;74.90
12309;DHT22;6217;48.150;17.142;2023-06-22T07:10:40;28.40;74.20
12309;DHT22;6217;48.150;17.142;2023-06-22T07:14:46;28.20;74.00
12309;DHT22;6217;48.150;17.142;2023-06-22T07:18:52;28.10;74.20
12309;DHT22;6217;48.150;17.142;2023-06-22T07:22:58;28.00;74.40
12309;DHT22;6217;48.150;17.142;2023-06-22T07:27:04;27.90;74.30
12309;DHT22;6217;48.150;17.142;2023-06-22T07:31:12;27.80;74.10
12309;DHT22;6217;48.150;17.142;2023-06-22T07:35:18;27.90;74.00
12309;DHT22;6217;48.150;17.142;2023-06-22T07:39:24;27.80;73.90
12309;DHT22;6217;48.150;17.142;2023-06-22T07:43:32;27.80;74.00
12309;DHT22;6217;48.150;17.142;2023-06-22T07:47:39;27.90;73.90
12309;DHT22;6217;48.150;17.142;2023-06-22T07:51:45;27.80;73.80
12309;DHT22;6217;48.150;17.142;2023-06-22T07:55:51;27.90;73.80
12309;DHT22;6217;48.150;17.142;2023-06-22T07:59:58;27.90;73.30
12309;DHT22;6217;48.150;17.142;2023-06-22T08:04:04;28.00;73.00
12309;DHT22;6217;48.150;17.142;2023-06-22T08:08:20;28.00;72.80
12309;DHT22;6217;48.150;17.142;2023-06-22T08:12:26;28.00;72.50
12309;DHT22;6217;48.150;17.142;2023-06-22T08:16:32;28.00;72.50
12309;DHT22;6217;48.150;17.142;2023-06-22T08:20:38;28.00;72.40
12309;DHT22;6217;48.150;17.142;2023-06-22T08:24:44;28.20;72.40
12309;DHT22;6217;48.150;17.142;2023-06-22T08:28:50;28.40;72.20
12309;DHT22;6217;48.150;17.142;2023-06-22T08:32:56;28.50;71.80
12309;DHT22;6217;48.150;17.142;2023-06-22T08:37:02;28.60;71.00
12309;DHT22;6217;48.150;17.142;2023-06-22T08:41:11;28.60;70.70
12309;DHT22;6217;48.150;17.142;2023-06-22T08:45:17;28.70;69.90
12309;DHT22;6217;48.150;17.142;2023-06-22T08:49:23;28.80;68.70
12309;DHT22;6217;48.150;17.142;2023-06-22T08:53:29;28.80;68.00
12309;DHT22;6217;48.150;17.142;2023-06-22T08:57:35;28.90;67.80
12309;DHT22;6217;48.150;17.142;2023-06-22T09:01:44;28.90;67.40
12309;DHT22;6217;48.150;17.142;2023-06-22T09:05:54;28.90;67.00
12309;DHT22;6217;48.150;17.142;2023-06-22T09:10:00;29.00;66.50
12309;DHT22;6217;48.150;17.142;2023-06-22T09:14:06;29.00;65.90
12309;DHT22;6217;48.150;17.142;2023-06-22T09:18:13;29.00;65.30
12309;DHT22;6217;48.150;17.142;2023-06-22T09:22:19;29.10;65.50
12309;DHT22;6217;48.150;17.142;2023-06-22T09:26:25;29.10;65.10
12309;DHT22;6217;48.150;17.142;2023-06-22T09:30:31;29.00;64.90
12309;DHT22;6217;48.150;17.142;2023-06-22T09:34:37;29.10;65.00
12309;DHT22;6217;48.150;17.142;2023-06-22T09:38:43;29.20;65.00
12309;DHT22;6217;48.150;17.142;2023-06-22T09:42:49;29.30;64.50
12309;DHT22;6217;48.150;17.142;2023-06-22T09:46:55;29.30;64.30
12309;DHT22;6217;48.150;17.142;2023-06-22T09:51:01;29.30;63.90
12309;DHT22;6217;48.150;17.142;2023-06-22T09:55:07;29.30;63.70
12309;DHT22;6217;48.150;17.142;2023-06-22T09:59:13;29.50;63.60
12309;DHT22;6217;48.150;17.142;2023-06-22T10:03:19;29.60;63.30
12309;DHT22;6217;48.150;17.142;2023-06-22T10:07:25;29.60;62.40
12309;DHT22;6217;48.150;17.142;2023-06-22T10:11:31;29.60;62.40
12309;DHT22;6217;48.150;17.142;2023-06-22T10:15:38;29.70;62.50
12309;DHT22;6217;48.150;17.142;2023-06-22T10:19:44;29.70;62.60
12309;DHT22;6217;48.150;17.142;2023-06-22T10:23:50;29.80;62.50
12309;DHT22;6217;48.150;17.142;2023-06-22T10:27:56;29.90;62.00
12309;DHT22;6217;48.150;17.142;2023-06-22T10:32:03;30.00;61.60
12309;DHT22;6217;48.150;17.142;2023-06-22T10:36:09;30.10;61.30
12309;DHT22;6217;48.150;17.142;2023-06-22T10:40:17;30.10;60.70
12309;DHT22;6217;48.150;17.142;2023-06-22T10:44:24;30.20;60.70
12309;DHT22;6217;48.150;17.142;2023-06-22T10:48:30;30.30;60.50
12309;DHT22;6217;48.150;17.142;2023-06-22T10:52:35;30.20;60.40
12309;DHT22;6217;48.150;17.142;2023-06-22T10:56:41;30.20;60.60
12309;DHT22;6217;48.150;17.142;2023-06-22T11:00:47;30.20;60.70
12309;DHT22;6217;48.150;17.142;2023-06-22T11:04:53;30.20;60.40
12309;DHT22;6217;48.150;17.142;2023-06-22T11:08:59;30.20;60.30
12309;DHT22;6217;48.150;17.142;2023-06-22T11:13:05;30.30;60.10
12309;DHT22;6217;48.150;17.142;2023-06-22T11:17:15;30.40;59.40
12309;DHT22;6217;48.150;17.142;2023-06-22T11:21:21;30.40;59.00
12309;DHT22;6217;48.150;17.142;2023-06-22T11:25:26;30.50;58.80
12309;DHT22;6217;48.150;17.142;2023-06-22T11:29:34;30.50;58.20
12309;DHT22;6217;48.150;17.142;2023-06-22T11:33:40;30.60;57.90
12309;DHT22;6217;48.150;17.142;2023-06-22T11:37:46;30.60;57.50
12309;DHT22;6217;48.150;17.142;2023-06-22T11:41:52;30.60;57.20
12309;DHT22;6217;48.150;17.142;2023-06-22T11:45:58;30.60;57.10
12309;DHT22;6217;48.150;17.142;2023-06-22T11:50:04;30.70;57.00
12309;DHT22;6217;48.150;17.142;2023-06-22T11:54:11;30.70;56.80
12309;DHT22;6217;48.150;17.142;2023-06-22T11:58:17;30.70;56.80
12309;DHT22;6217;48.150;17.142;2023-06-22T12:02:23;30.70;56.80
12309;DHT22;6217;48.150;17.142;2023-06-22T12:06:29;30.80;56.70
12309;DHT22;6217;48.150;17.142;2023-06-22T12:10:34;30.80;56.60
12309;DHT22;6217;48.150;17.142;2023-06-22T12:14:40;30.80;56.80
12309;DHT22;6217;48.150;17.142;2023-06-22T12:18:47;30.80;56.50
12309;DHT22;6217;48.150;17.142;2023-06-22T12:22:53;30.80;56.20
12309;DHT22;6217;48.150;17.142;2023-06-22T12:27:01;30.90;56.40
12309;DHT22;6217;48.150;17.142;2023-06-22T12:31:08;30.90;56.90
12309;DHT22;6217;48.150;17.142;2023-06-22T12:35:14;31.00;57.50
12309;DHT22;6217;48.150;17.142;2023-06-22T12:39:20;31.00;58.40
12309;DHT22;6217;48.150;17.142;2023-06-22T12:43:26;31.00;58.80
12309;DHT22;6217;48.150;17.142;2023-06-22T12:47:32;30.90;58.80
12309;DHT22;6217;48.150;17.142;2023-06-22T12:51:42;31.00;58.90
12309;DHT22;6217;48.150;17.142;2023-06-22T12:55:48;31.00;58.70
12309;DHT22;6217;48.150;17.142;2023-06-22T12:59:54;30.90;58.50
12309;DHT22;6217;48.150;17.142;2023-06-22T13:04:00;30.90;58.50
12309;DHT22;6217;48.150;17.142;2023-06-22T13:08:06;30.90;58.30
12309;DHT22;6217;48.150;17.142;2023-06-22T13:12:13;30.80;57.90
12309;DHT22;6217;48.150;17.142;2023-06-22T13:16:19;30.80;57.50
12309;DHT22;6217;48.150;17.142;2023-06-22T13:20:25;30.80;56.90
12309;DHT22;6217;48.150;17.142;2023-06-22T13:24:31;30.80;56.80
12309;DHT22;6217;48.150;17.142;2023-06-22T13:28:37;30.70;56.30
12309;DHT22;6217;48.150;17.142;2023-06-22T13:32:43;30.70;56.10
12309;DHT22;6217;48.150;17.142;2023-06-22T13:36:48;30.70;56.20
12309;DHT22;6217;48.150;17.142;2023-06-22T13:40:54;30.70;56.10
12309;DHT22;6217;48.150;17.142;2023-06-22T13:45:04;30.80;56.10
12309;DHT22;6217;48.150;17.142;2023-06-22T13:49:10;30.90;56.10
12309;DHT22;6217;48.150;17.142;2023-06-22T13:53:16;30.90;56.30
12309;DHT22;6217;48.150;17.142;2023-06-22T13:57:22;31.00;56.50
12309;DHT22;6217;48.150;17.142;2023-06-22T14:01:28;31.10;56.60
12309;DHT22;6217;48.150;17.142;2023-06-22T14:05:34;31.20;56.40
12309;DHT22;6217;48.150;17.142;2023-06-22T14:09:40;31.10;55.90
12309;DHT22;6217;48.150;17.142;2023-06-22T14:13:46;31.10;56.00
12309;DHT22;6217;48.150;17.142;2023-06-22T14:17:52;31.20;56.30
12309;DHT22;6217;48.150;17.142;2023-06-22T14:21:58;31.20;56.30
12309;DHT22;6217;48.150;17.142;2023-06-22T14:26:04;31.30;56.00
12309;DHT22;6217;48.150;17.142;2023-06-22T14:30:10;31.30;55.60
12309;DHT22;6217;48.150;17.142;2023-06-22T14:34:16;31.40;55.50
12309;DHT22;6217;48.150;17.142;2023-06-22T14:38:22;31.40;54.90
12309;DHT22;6217;48.150;17.142;2023-06-22T14:42:28;31.40;54.30
12309;DHT22;6217;48.150;17.142;2023-06-22T14:46:36;31.50;54.40
12309;DHT22;6217;48.150;17.142;2023-06-22T14:50:42;31.50;54.60
12309;DHT22;6217;48.150;17.142;2023-06-22T14:54:48;31.50;54.40
12309;DHT22;6217;48.150;17.142;2023-06-22T14:58:56;31.50;54.20
12309;DHT22;6217;48.150;17.142;2023-06-22T15:07:11;31.40;54.10
12309;DHT22;6217;48.150;17.142;2023-06-22T15:11:17;31.40;54.10
12309;DHT22;6217;48.150;17.142;2023-06-22T15:15:23;31.50;54.10
12309;DHT22;6217;48.150;17.142;2023-06-22T15:19:28;31.40;54.00
12309;DHT22;6217;48.150;17.142;2023-06-22T15:23:34;31.40;54.40
12309;DHT22;6217;48.150;17.142;2023-06-22T15:27:40;31.40;54.70
12309;DHT22;6217;48.150;17.142;2023-06-22T15:31:46;31.40;55.00
12309;DHT22;6217;48.150;17.142;2023-06-22T15:35:52;31.40;55.10
12309;DHT22;6217;48.150;17.142;2023-06-22T15:39:58;31.40;55.30
12309;DHT22;6217;48.150;17.142;2023-06-22T15:44:04;31.40;55.60
12309;DHT22;6217;48.150;17.142;2023-06-22T15:48:10;31.40;55.70
12309;DHT22;6217;48.150;17.142;2023-06-22T15:52:17;31.40;56.00
12309;DHT22;6217;48.150;17.142;2023-06-22T15:56:24;31.40;55.90
12309;DHT22;6217;48.150;17.142;2023-06-22T16:00:30;31.40;56.00
12309;DHT22;6217;48.150;17.142;2023-06-22T16:04:36;31.40;56.20
12309;DHT22;6217;48.150;17.142;2023-06-22T16:08:42;31.40;56.30
12309;DHT22;6217;48.150;17.142;2023-06-22T16:12:48;31.40;56.30
12309;DHT22;6217;48.150;17.142;2023-06-22T16:16:55;31.30;56.40
12309;DHT22;6217;48.150;17.142;2023-06-22T16:21:00;31.30;56.60
12309;DHT22;6217;48.150;17.142;2023-06-22T16:25:07;31.30;56.90
12309;DHT22;6217;48.150;17.142;2023-06-22T16:29:13;31.20;56.90
12309;DHT22;6217;48.150;17.142;2023-06-22T16:33:19;31.20;57.10
12309;DHT22;6217;48.150;17.142;2023-06-22T16:37:25;31.20;57.30
12309;DHT22;6217;48.150;17.142;2023-06-22T16:41:31;31.20;57.50
12309;DHT22;6217;48.150;17.142;2023-06-22T16:45:39;31.20;57.70
12309;DHT22;6217;48.150;17.142;2023-06-22T16:49:45;31.20;57.80
12309;DHT22;6217;48.150;17.142;2023-06-22T16:53:55;31.20;58.50
12309;DHT22;6217;48.150;17.142;2023-06-22T16:58:01;31.30;58.10
12309;DHT22;6217;48.150;17.142;2023-06-22T17:02:17;31.30;58.10
12309;DHT22;6217;48.150;17.142;2023-06-22T17:06:25;31.30;58.10
12309;DHT22;6217;48.150;17.142;2023-06-22T17:10:33;31.20;58.10
12309;DHT22;6217;48.150;17.142;2023-06-22T17:14:41;31.20;58.10
12309;DHT22;6217;48.150;17.142;2023-06-22T17:18:52;31.20;58.30
12309;DHT22;6217;48.150;17.142;2023-06-22T17:22:59;31.10;58.80
12309;DHT22;6217;48.150;17.142;2023-06-22T17:27:06;31.10;59.10
12309;DHT22;6217;48.150;17.142;2023-06-22T17:31:12;31.00;59.40
12309;DHT22;6217;48.150;17.142;2023-06-22T17:35:18;30.90;59.70
12309;DHT22;6217;48.150;17.142;2023-06-22T17:39:26;30.80;59.90
12309;DHT22;6217;48.150;17.142;2023-06-22T17:43:43;30.80;60.20
12309;DHT22;6217;48.150;17.142;2023-06-22T17:47:52;30.70;60.20
12309;DHT22;6217;48.150;17.142;2023-06-22T17:52:00;30.60;60.30
12309;DHT22;6217;48.150;17.142;2023-06-22T17:56:06;30.50;60.70
12309;DHT22;6217;48.150;17.142;2023-06-22T18:00:12;30.50;61.00
12309;DHT22;6217;48.150;17.142;2023-06-22T18:04:18;30.40;61.10
12309;DHT22;6217;48.150;17.142;2023-06-22T18:08:25;30.40;61.30
12309;DHT22;6217;48.150;17.142;2023-06-22T18:12:33;30.30;61.40
12309;DHT22;6217;48.150;17.142;2023-06-22T18:16:41;30.30;61.60
12309;DHT22;6217;48.150;17.142;2023-06-22T18:20:49;30.20;61.70
12309;DHT22;6217;48.150;17.142;2023-06-22T18:24:56;30.10;61.80
12309;DHT22;6217;48.150;17.142;2023-06-22T18:29:03;30.00;61.80
12309;DHT22;6217;48.150;17.142;2023-06-22T18:33:09;30.00;62.10
12309;DHT22;6217;48.150;17.142;2023-06-22T18:37:15;29.90;62.20
12309;DHT22;6217;48.150;17.142;2023-06-22T18:41:23;29.90;62.40
12309;DHT22;6217;48.150;17.142;2023-06-22T18:45:31;29.80;62.60
12309;DHT22;6217;48.150;17.142;2023-06-22T18:54:02;29.70;63.00
12309;DHT22;6217;48.150;17.142;2023-06-22T18:58:13;29.60;63.40
12309;DHT22;6217;48.150;17.142;2023-06-22T19:11:11;29.50;64.00
12309;DHT22;6217;48.150;17.142;2023-06-22T19:15:19;29.40;64.20
12309;DHT22;6217;48.150;17.142;2023-06-22T19:19:26;29.40;64.40
12309;DHT22;6217;48.150;17.142;2023-06-22T19:27:43;29.30;65.10
12309;DHT22;6217;48.150;17.142;2023-06-22T19:31:49;29.20;65.40
12309;DHT22;6217;48.150;17.142;2023-06-22T19:35:57;29.10;65.70
12309;DHT22;6217;48.150;17.142;2023-06-22T19:40:11;29.00;66.10
12309;DHT22;6217;48.150;17.142;2023-06-22T19:44:17;29.00;66.50
12309;DHT22;6217;48.150;17.142;2023-06-22T19:48:25;28.90;66.80
12309;DHT22;6217;48.150;17.142;2023-06-22T19:52:36;28.90;67.20
12309;DHT22;6217;48.150;17.142;2023-06-22T19:56:46;28.80;67.40
12309;DHT22;6217;48.150;17.142;2023-06-22T20:00:54;28.80;67.90
12309;DHT22;6217;48.150;17.142;2023-06-22T20:05:08;28.70;68.20
12309;DHT22;6217;48.150;17.142;2023-06-22T20:09:14;28.60;68.50
12309;DHT22;6217;48.150;17.142;2023-06-22T20:13:20;28.60;68.70
12309;DHT22;6217;48.150;17.142;2023-06-22T20:17:26;28.50;69.10
12309;DHT22;6217;48.150;17.142;2023-06-22T20:21:32;28.50;69.50
12309;DHT22;6217;48.150;17.142;2023-06-22T20:25:40;28.40;69.80
12309;DHT22;6217;48.150;17.142;2023-06-22T20:29:48;28.40;70.30
12309;DHT22;6217;48.150;17.142;2023-06-22T20:34:03;28.40;70.70
12309;DHT22;6217;48.150;17.142;2023-06-22T20:38:10;28.30;71.50
12309;DHT22;6217;48.150;17.142;2023-06-22T20:42:16;28.20;71.80
12309;DHT22;6217;48.150;17.142;2023-06-22T20:46:22;28.20;72.40
12309;DHT22;6217;48.150;17.142;2023-06-22T20:50:28;28.10;72.60
12309;DHT22;6217;48.150;17.142;2023-06-22T20:54:38;28.10;73.30
12309;DHT22;6217;48.150;17.142;2023-06-22T20:58:44;28.10;73.50
12309;DHT22;6217;48.150;17.142;2023-06-22T21:02:50;28.00;74.00
12309;DHT22;6217;48.150;17.142;2023-06-22T21:06:57;28.00;74.40
12309;DHT22;6217;48.150;17.142;2023-06-22T21:11:04;28.00;74.90
12309;DHT22;6217;48.150;17.142;2023-06-22T21:15:10;27.90;75.40
12309;DHT22;6217;48.150;17.142;2023-06-22T21:19:16;27.80;75.80
12309;DHT22;6217;48.150;17.142;2023-06-22T21:23:22;27.90;76.00
12309;DHT22;6217;48.150;17.142;2023-06-22T21:27:28;27.90;76.30
12309;DHT22;6217;48.150;17.142;2023-06-22T21:31:42;27.80;76.60
12309;DHT22;6217;48.150;17.142;2023-06-22T21:35:50;27.80;77.30
12309;DHT22;6217;48.150;17.142;2023-06-22T21:39:56;27.70;77.50
12309;DHT22;6217;48.150;17.142;2023-06-22T21:44:03;27.70;77.80
12309;DHT22;6217;48.150;17.142;2023-06-22T21:48:11;27.60;78.20
12309;DHT22;6217;48.150;17.142;2023-06-22T21:52:17;27.60;78.70
12309;DHT22;6217;48.150;17.142;2023-06-22T21:56:23;27.60;79.00
12309;DHT22;6217;48.150;17.142;2023-06-22T22:00:32;27.60;79.20
12309;DHT22;6217;48.150;17.142;2023-06-22T22:04:40;27.50;79.50
12309;DHT22;6217;48.150;17.142;2023-06-22T22:08:48;27.50;79.80
12309;DHT22;6217;48.150;17.142;2023-06-22T22:12:55;27.40;80.30
12309;DHT22;6217;48.150;17.142;2023-06-22T22:17:02;27.30;80.70
12309;DHT22;6217;48.150;17.142;2023-06-22T22:21:11;27.20;81.90
12309;DHT22;6217;48.150;17.142;2023-06-22T22:25:29;27.20;81.40
12309;DHT22;6217;48.150;17.142;2023-06-22T22:29:36;27.10;82.10
12309;DHT22;6217;48.150;17.142;2023-06-22T22:33:43;27.00;82.50
12309;DHT22;6217;48.150;17.142;2023-06-22T22:37:50;26.90;83.10
12309;DHT22;6217;48.150;17.142;2023-06-22T22:41:56;26.80;83.60
12309;DHT22;6217;48.150;17.142;2023-06-22T22:46:02;26.70;84.20
12309;DHT22;6217;48.150;17.142;2023-06-22T22:50:08;26.60;84.80
12309;DHT22;6217;48.150;17.142;2023-06-22T22:54:14;26.60;85.10
12309;DHT22;6217;48.150;17.142;2023-06-22T22:58:20;26.50;85.50
12309;DHT22;6217;48.150;17.142;2023-06-22T23:02:26;26.50;86.00
12309;DHT22;6217;48.150;17.142;2023-06-22T23:06:32;26.60;86.30
12309;DHT22;6217;48.150;17.142;2023-06-22T23:10:38;26.70;86.40
12309;DHT22;6217;48.150;17.142;2023-06-22T23:14:44;26.70;86.50
12309;DHT22;6217;48.150;17.142;2023-06-22T23:18:50;26.60;86.90
12309;DHT22;6217;48.150;17.142;2023-06-22T23:22:56;26.60;87.20
12309;DHT22;6217;48.150;17.142;2023-06-22T23:27:03;26.60;87.40
12309;DHT22;6217;48.150;17.142;2023-06-22T23:31:09;26.60;87.70
12309;DHT22;6217;48.150;17.142;2023-06-22T23:35:15;26.60;88.00
12309;DHT22;6217;48.150;17.142;2023-06-22T23:39:21;26.50;88.30
12309;DHT22;6217;48.150;17.142;2023-06-22T23:43:27;26.50;88.60
12309;DHT22;6217;48.150;17.142;2023-06-22T23:47:33;26.50;89.10
12309;DHT22;6217;48.150;17.142;2023-06-22T23:51:41;26.40;89.20
12309;DHT22;6217;48.150;17.142;2023-06-22T23:55:47;26.40;89.60
12309;DHT22;6217;48.150;17.142;2023-06-22T23:59:53;26.30;90.00
